createdAt,value
2023-02-02T00:02:57.665Z,88.23
2023-02-02T00:06:05.335Z,87.90
2023-02-02T00:09:15.289Z,87.40
2023-02-02T00:12:20.177Z,87.38
2023-02-02T00:15:26.496Z,87.67
2023-02-02T00:18:26.492Z,88.02
2023-02-02T00:21:25.338Z,88.22
2023-02-02T00:24:32.594Z,87.59
2023-02-02T00:27:37.492Z,88.01
2023-02-02T00:30:43.831Z,87.46
2023-02-02T00:33:51.538Z,87.25
2023-02-02T00:36:58.302Z,86.68
2023-02-02T00:40:04.362Z,87.26
2023-02-02T00:43:11.056Z,86.90
2023-02-02T00:46:18.132Z,86.68
2023-02-02T00:49:24.779Z,87.28
2023-02-02T00:52:31.328Z,87.63
2023-02-02T00:55:38.445Z,86.95
2023-02-02T00:58:44.647Z,86.43
2023-02-02T01:01:50.602Z,85.99
2023-02-02T01:04:56.829Z,85.52
2023-02-02T01:07:58.575Z,86.48
2023-02-02T01:11:05.047Z,86.76
2023-02-02T01:14:10.664Z,86.30
2023-02-02T01:17:16.561Z,86.60
2023-02-02T01:20:23.064Z,87.14
2023-02-02T01:23:31.230Z,86.58
2023-02-02T01:26:37.236Z,86.80
2023-02-02T01:29:43.411Z,87.59
2023-02-02T01:32:48.823Z,87.56
2023-02-02T01:36:06.707Z,87.26
2023-02-02T01:39:12.739Z,87.34
2023-02-02T01:42:17.866Z,87.17
2023-02-02T01:45:33.823Z,87.43
2023-02-02T01:48:44.616Z,86.76
2023-02-02T01:52:09.257Z,87.45
2023-02-02T01:55:22.275Z,86.87
2023-02-02T01:58:39.070Z,86.58
2023-02-02T02:01:45.389Z,86.81
2023-02-02T02:04:50.871Z,87.18
2023-02-02T02:07:57.093Z,86.97
2023-02-02T02:10:56.279Z,87.49
2023-02-02T02:14:21.358Z,87.40
2023-02-02T02:17:53.112Z,87.72
2023-02-02T02:21:37.119Z,88.36
2023-02-02T02:25:25.148Z,87.99
2023-02-02T02:28:51.496Z,87.17
2023-02-02T02:32:39.484Z,87.36
2023-02-02T02:36:13.034Z,87.23
2023-02-02T02:39:33.473Z,87.19
2023-02-02T02:42:41.992Z,87.54
2023-02-02T02:45:47.832Z,88.27
2023-02-02T02:48:52.959Z,87.80
2023-02-02T02:52:08.927Z,88.25
2023-02-02T02:55:14.628Z,88.54
2023-02-02T02:58:27.866Z,88.68
2023-02-02T03:01:50.724Z,88.64
2023-02-02T03:05:09.750Z,89.06
2023-02-02T03:08:24.332Z,89.18
2023-02-02T03:11:29.617Z,89.15
2023-02-02T03:14:35.628Z,88.85
2023-02-02T03:17:43.412Z,89.46
2023-02-02T03:20:49.002Z,89.75
2023-02-02T03:23:55.675Z,89.78
2023-02-02T03:27:01.550Z,89.50
2023-02-02T03:30:07.535Z,89.67
2023-02-02T03:33:13.076Z,89.37
2023-02-02T03:36:19.670Z,89.88
2023-02-02T03:39:26.182Z,89.06
2023-02-02T03:42:32.747Z,89.06
2023-02-02T03:45:42.473Z,88.70
2023-02-02T03:48:53.015Z,89.43
2023-02-02T03:51:59.076Z,88.88
2023-02-02T03:55:05.492Z,88.58
2023-02-02T03:58:11.136Z,88.73
2023-02-02T04:01:24.362Z,87.84
2023-02-02T04:04:29.925Z,88.34
2023-02-02T04:07:36.343Z,88.62
2023-02-02T04:10:42.071Z,88.54
2023-02-02T04:13:49.787Z,88.11
2023-02-02T04:16:57.341Z,87.84
2023-02-02T04:20:04.461Z,87.88
2023-02-02T04:23:11.093Z,87.88
2023-02-02T04:26:17.531Z,88.23
2023-02-02T04:29:24.475Z,88.75
2023-02-02T04:32:31.029Z,88.62
2023-02-02T04:35:37.398Z,88.70
2023-02-02T04:38:42.805Z,88.81
2023-02-02T04:41:48.681Z,88.76
2023-02-02T04:44:54.401Z,88.35
2023-02-02T04:48:01.060Z,88.65
2023-02-02T04:51:15.706Z,88.52
2023-02-02T04:54:22.577Z,88.43
2023-02-02T04:57:27.368Z,88.15
2023-02-02T05:00:32.837Z,88.43
2023-02-02T05:03:38.200Z,88.23
2023-02-02T05:06:43.933Z,88.08
2023-02-02T05:09:43.768Z,88.43
2023-02-02T05:12:36.237Z,87.99
2023-02-02T05:15:41.308Z,88.89
2023-02-02T05:18:47.966Z,89.01
2023-02-02T05:21:56.344Z,88.39
2023-02-02T05:25:02.634Z,87.52
2023-02-02T05:28:08.357Z,88.19
2023-02-02T05:31:14.840Z,89.47
2023-02-02T05:34:20.408Z,89.95
2023-02-02T05:37:27.778Z,89.97
2023-02-02T05:40:34.309Z,89.40
2023-02-02T05:43:44.124Z,89.06
2023-02-02T05:46:45.408Z,89.14
2023-02-02T05:49:51.998Z,88.97
2023-02-02T05:52:58.555Z,89.04
2023-02-02T05:56:04.714Z,89.07
2023-02-02T05:59:11.758Z,89.41
2023-02-02T06:02:17.140Z,89.99
2023-02-02T06:05:23.364Z,90.61
2023-02-02T06:08:28.661Z,90.40
2023-02-02T06:11:34.216Z,90.21
2023-02-02T06:14:40.236Z,89.94
2023-02-02T06:17:45.419Z,89.83
2023-02-02T06:20:53.714Z,88.62
2023-02-02T06:24:00.604Z,88.22
2023-02-02T06:27:09.365Z,87.98
2023-02-02T06:30:21.399Z,88.25
2023-02-02T06:33:26.723Z,89.06
2023-02-02T06:36:35.244Z,88.48
2023-02-02T06:39:41.109Z,88.39
2023-02-02T06:42:46.458Z,87.70
2023-02-02T06:45:52.487Z,88.27
2023-02-02T06:48:57.994Z,88.14
2023-02-02T06:52:03.611Z,88.17
2023-02-02T06:55:11.505Z,88.12
2023-02-02T06:58:18.031Z,87.20
2023-02-02T07:01:26.781Z,87.61
2023-02-02T07:04:34.899Z,87.46
2023-02-02T07:07:45.097Z,87.35
2023-02-02T07:11:11.582Z,87.84
2023-02-02T07:14:14.959Z,87.57
2023-02-02T07:17:20.053Z,87.28
2023-02-02T07:20:27.792Z,86.61
2023-02-02T07:23:32.969Z,86.16
2023-02-02T07:26:38.711Z,86.89
2023-02-02T07:29:47.013Z,86.80
2023-02-02T07:32:53.642Z,86.85
2023-02-02T07:36:01.343Z,86.51
2023-02-02T07:39:10.574Z,85.55
2023-02-02T07:42:17.854Z,84.79
2023-02-02T07:45:27.224Z,84.18
2023-02-02T07:48:30.888Z,83.57
2023-02-02T07:51:38.260Z,84.01
2023-02-02T07:54:43.417Z,84.18
2023-02-02T07:57:49.188Z,84.42
2023-02-02T08:00:55.755Z,83.96
2023-02-02T08:04:02.002Z,83.39
2023-02-02T08:07:07.681Z,83.49
2023-02-02T08:10:16.370Z,83.18
2023-02-02T08:13:24.819Z,83.08
2023-02-02T08:16:29.927Z,82.56
2023-02-02T08:19:35.695Z,82.52
2023-02-02T08:22:50.646Z,82.18
2023-02-02T08:25:57.670Z,81.30
2023-02-02T08:29:09.802Z,81.58
2023-02-02T08:32:16.541Z,81.69
2023-02-02T08:35:21.426Z,80.83
2023-02-02T08:38:27.007Z,80.62
2023-02-02T08:41:36.495Z,80.83
2023-02-02T08:45:59.538Z,80.41
2023-02-02T08:47:56.005Z,79.37
2023-02-02T08:50:56.050Z,78.51
2023-02-02T08:54:02.257Z,78.31
2023-02-02T08:57:07.040Z,79.07
2023-02-02T09:00:13.818Z,78.77
2023-02-02T09:03:19.607Z,78.54
2023-02-02T09:06:33.327Z,78.10
2023-02-02T09:09:38.883Z,78.36
2023-02-02T09:12:45.111Z,78.07
2023-02-02T09:15:50.520Z,78.04
2023-02-02T09:18:56.438Z,77.66
2023-02-02T09:22:04.008Z,77.49
2023-02-02T09:25:09.632Z,77.57
2023-02-02T09:28:15.192Z,77.10
2023-02-02T09:31:20.395Z,76.70
2023-02-02T09:34:27.886Z,76.43
2023-02-02T09:37:32.952Z,76.21
2023-02-02T09:40:38.811Z,76.97
2023-02-02T09:44:13.392Z,77.11
2023-02-02T09:48:02.166Z,76.69
2023-02-02T09:51:12.589Z,76.93
2023-02-02T09:54:21.819Z,77.48
2023-02-02T09:57:35.327Z,77.90
2023-02-02T10:00:49.845Z,76.68
2023-02-02T10:04:18.373Z,76.60
2023-02-02T10:07:29.958Z,76.91
2023-02-02T10:10:52.131Z,77.79
2023-02-02T10:14:00.666Z,78.11
2023-02-02T10:17:08.660Z,78.31
2023-02-02T10:20:31.274Z,78.62
2023-02-02T10:23:54.657Z,79.06
2023-02-02T10:27:20.255Z,79.49
2023-02-02T10:30:34.476Z,79.65
2023-02-02T10:33:55.049Z,80.08
2023-02-02T10:37:09.176Z,80.33
2023-02-02T10:40:50.793Z,80.28
2023-02-02T10:44:20.444Z,79.79
2023-02-02T10:47:30.053Z,81.09
2023-02-02T10:50:35.895Z,81.16
2023-02-02T10:53:43.643Z,81.21
2023-02-02T10:56:59.093Z,82.02
2023-02-02T11:00:31.998Z,81.67
2023-02-02T11:03:47.363Z,82.10
2023-02-02T11:07:01.434Z,81.96
2023-02-02T11:10:06.582Z,82.46
2023-02-02T11:13:12.563Z,82.15
2023-02-02T11:16:43.183Z,82.45
2023-02-02T11:19:46.493Z,82.18
2023-02-02T11:22:52.329Z,82.46
2023-02-02T11:25:57.933Z,82.61
2023-02-02T11:29:05.421Z,82.96
2023-02-02T11:32:10.273Z,82.94
2023-02-02T11:35:36.646Z,83.33
2023-02-02T11:38:42.460Z,83.14
2023-02-02T11:41:48.851Z,82.74
2023-02-02T11:44:54.841Z,82.76
2023-02-02T11:48:00.799Z,83.63
2023-02-02T11:51:09.992Z,84.49
2023-02-02T11:54:36.500Z,85.00
2023-02-02T11:57:42.726Z,85.45
2023-02-02T12:00:47.830Z,84.58
2023-02-02T12:03:54.067Z,84.74
2023-02-02T12:07:00.519Z,85.35
2023-02-02T12:10:05.394Z,85.06
2023-02-02T12:13:33.044Z,84.42
2023-02-02T12:17:02.175Z,84.96
2023-02-02T12:20:27.604Z,84.10
2023-02-02T12:23:40.583Z,83.07
2023-02-02T12:26:50.858Z,84.11
2023-02-02T12:30:19.338Z,83.17
2023-02-02T12:34:01.648Z,82.81
2023-02-02T12:37:40.936Z,82.14
2023-02-02T12:41:02.327Z,81.97
2023-02-02T12:44:23.675Z,82.50
2023-02-02T12:47:50.652Z,82.01
2023-02-02T12:51:33.474Z,82.66
2023-02-02T12:54:52.497Z,83.57
2023-02-02T12:58:27.112Z,84.15
2023-02-02T13:01:49.114Z,84.14
2023-02-02T13:05:35.814Z,83.48
2023-02-02T13:09:20.374Z,82.99
2023-02-02T13:12:26.953Z,82.66
2023-02-02T13:15:33.474Z,82.55
2023-02-02T13:18:31.264Z,82.08
2023-02-02T13:21:26.234Z,82.15
2023-02-02T13:24:13.095Z,81.74
2023-02-02T13:27:06.830Z,81.54
2023-02-02T13:30:01.598Z,81.37
2023-02-02T13:32:54.376Z,81.89
2023-02-02T13:36:20.164Z,81.65
2023-02-02T13:39:43.210Z,81.40
2023-02-02T13:43:07.681Z,80.89
2023-02-02T13:46:41.746Z,81.20
2023-02-02T13:49:58.053Z,81.12
2023-02-02T13:53:21.733Z,81.31
2023-02-02T13:57:12.521Z,82.33
2023-02-02T14:00:39.592Z,82.55
2023-02-02T14:04:00.137Z,83.89
2023-02-02T14:07:12.893Z,83.78
2023-02-02T14:10:05.119Z,83.80
2023-02-02T14:13:10.907Z,83.19
2023-02-02T14:16:18.741Z,83.61
2023-02-02T14:19:47.483Z,83.61
2023-02-02T14:23:01.687Z,83.05
2023-02-02T14:26:22.589Z,83.88
2023-02-02T14:29:52.341Z,84.39
2023-02-02T14:32:57.381Z,85.91
2023-02-02T14:36:07.930Z,86.75
2023-02-02T14:39:20.409Z,86.99
2023-02-02T14:43:08.180Z,86.74
2023-02-02T14:46:39.303Z,86.97
2023-02-02T14:49:47.698Z,86.93
2023-02-02T14:52:53.968Z,87.54
2023-02-02T14:56:23.800Z,87.42
2023-02-02T14:59:44.105Z,86.86
2023-02-02T15:02:53.972Z,86.78
2023-02-02T15:06:01.325Z,87.13
2023-02-02T15:09:32.557Z,87.63
2023-02-02T15:12:47.497Z,88.23
2023-02-02T15:15:54.169Z,88.18
2023-02-02T15:19:04.479Z,88.39
2023-02-02T15:22:09.839Z,88.42
2023-02-02T15:25:18.038Z,88.76
2023-02-02T15:29:13.447Z,88.41
2023-02-02T15:32:20.574Z,88.82
2023-02-02T15:35:38.295Z,88.54
2023-02-02T15:38:53.829Z,87.86
2023-02-02T15:42:01.284Z,87.24
2023-02-02T15:45:07.505Z,87.61
2023-02-02T15:48:14.310Z,88.52
2023-02-02T15:51:30.120Z,89.19
2023-02-02T15:54:41.091Z,89.56
2023-02-02T15:57:49.543Z,89.84
2023-02-02T16:00:55.566Z,89.75
2023-02-02T16:04:08.235Z,89.96
2023-02-02T16:07:14.072Z,89.99
2023-02-02T16:10:20.906Z,90.31
2023-02-02T16:13:43.462Z,90.59
2023-02-02T16:16:54.524Z,90.38
2023-02-02T16:19:59.414Z,89.72
2023-02-02T16:23:06.282Z,89.86
2023-02-02T16:26:12.108Z,90.22
2023-02-02T16:29:17.710Z,90.49
2023-02-02T16:32:50.096Z,90.28
2023-02-02T16:35:57.184Z,89.99
2023-02-02T16:39:04.203Z,90.15
2023-02-02T16:42:09.661Z,90.06
2023-02-02T16:45:09.193Z,89.44
2023-02-02T16:48:36.664Z,89.18
2023-02-02T16:51:40.027Z,89.19
2023-02-02T16:54:35.574Z,89.51
2023-02-02T16:57:43.992Z,89.84
2023-02-02T17:00:49.871Z,89.78
2023-02-02T17:03:59.984Z,89.53
2023-02-02T17:07:06.291Z,89.79
2023-02-02T17:10:38.758Z,89.19
2023-02-02T17:13:50.341Z,88.99
2023-02-02T17:16:56.726Z,89.62
2023-02-02T17:20:02.892Z,90.07
2023-02-02T17:23:13.084Z,89.48
2023-02-02T17:26:18.389Z,90.16
2023-02-02T17:29:33.064Z,90.56
2023-02-02T17:32:40.169Z,91.02
2023-02-02T17:35:55.747Z,90.65
2023-02-02T17:38:53.452Z,90.84
2023-02-02T17:42:00.775Z,91.25
2023-02-02T17:45:06.606Z,91.27
2023-02-02T17:48:14.645Z,90.96
2023-02-02T17:51:23.135Z,91.04
2023-02-02T17:54:28.989Z,90.41
2023-02-02T17:57:34.434Z,90.51
2023-02-02T18:00:41.143Z,90.96
2023-02-02T18:03:50.462Z,90.68
2023-02-02T18:06:56.130Z,90.39
2023-02-02T18:10:01.480Z,90.02
2023-02-02T18:13:07.656Z,90.34
2023-02-02T18:16:14.706Z,90.64
2023-02-02T18:19:21.321Z,91.02
2023-02-02T18:22:28.024Z,91.01
2023-02-02T18:25:33.931Z,90.58
2023-02-02T18:28:39.397Z,90.42
2023-02-02T18:31:45.253Z,91.00
2023-02-02T18:34:53.080Z,91.10
2023-02-02T18:37:52.637Z,90.54
2023-02-02T18:40:58.331Z,89.78
2023-02-02T18:44:04.352Z,89.53
2023-02-02T18:47:10.927Z,89.22
2023-02-02T18:50:17.993Z,89.13
2023-02-02T18:53:24.515Z,89.04
2023-02-02T18:56:30.731Z,88.99
2023-02-02T18:59:38.752Z,89.03
2023-02-02T19:02:45.722Z,90.58
2023-02-02T19:06:09.939Z,90.01
2023-02-02T19:09:15.906Z,90.15
2023-02-02T19:12:26.529Z,89.94
2023-02-02T19:15:33.394Z,88.34
2023-02-02T19:18:39.617Z,88.95
2023-02-02T19:21:48.362Z,88.26
2023-02-02T19:24:54.749Z,88.19
2023-02-02T19:28:00.857Z,87.98
2023-02-02T19:31:07.993Z,88.01
2023-02-02T19:34:13.499Z,88.80
2023-02-02T19:37:35.528Z,89.00
2023-02-02T19:40:40.635Z,91.25
2023-02-02T19:43:48.515Z,90.91
2023-02-02T19:46:58.441Z,91.04
2023-02-02T19:50:03.469Z,91.30
2023-02-02T19:53:11.635Z,90.31
2023-02-02T19:56:18.861Z,90.01
2023-02-02T19:59:31.114Z,89.66
2023-02-02T20:02:53.961Z,89.66
2023-02-02T20:06:02.270Z,89.80
2023-02-02T20:09:08.240Z,91.57
2023-02-02T20:12:14.309Z,90.58
2023-02-02T20:15:30.363Z,90.55
2023-02-02T20:18:47.995Z,90.73
2023-02-02T20:22:00.753Z,90.94
2023-02-02T20:25:07.844Z,91.08
2023-02-02T20:28:15.108Z,90.53
2023-02-02T20:31:22.443Z,90.22
2023-02-02T20:34:44.012Z,89.89
2023-02-02T20:37:50.252Z,89.92
2023-02-02T20:40:55.103Z,89.68
2023-02-02T20:44:01.336Z,90.46
2023-02-02T20:47:07.516Z,90.51
2023-02-02T20:50:13.241Z,90.73
2023-02-02T20:53:22.333Z,89.96
2023-02-02T20:56:27.161Z,91.51
2023-02-02T20:59:33.299Z,91.08
2023-02-02T21:02:39.552Z,90.45
2023-02-02T21:05:45.731Z,90.53
2023-02-02T21:08:51.600Z,91.08
2023-02-02T21:11:57.091Z,90.90
2023-02-02T21:15:02.358Z,90.99
2023-02-02T21:18:07.776Z,89.78
2023-02-02T21:21:13.820Z,89.45
2023-02-02T21:24:18.993Z,89.21
2023-02-02T21:27:24.108Z,88.86
2023-02-02T21:30:29.566Z,89.23
2023-02-02T21:33:36.056Z,89.08
2023-02-02T21:37:00.891Z,88.57
2023-02-02T21:40:07.115Z,88.42
2023-02-02T21:43:15.905Z,88.13
2023-02-02T21:46:36.755Z,88.07
2023-02-02T21:49:48.490Z,88.26
2023-02-02T21:52:54.619Z,89.19
2023-02-02T21:56:02.312Z,89.77
2023-02-02T21:59:10.681Z,89.80
2023-02-02T22:02:22.766Z,89.24
2023-02-02T22:05:43.839Z,89.26
2023-02-02T22:08:50.318Z,89.59
2023-02-02T22:12:05.724Z,89.13
2023-02-02T22:15:16.362Z,88.68
2023-02-02T22:18:36.206Z,89.94
2023-02-02T22:21:43.190Z,88.69
2023-02-02T22:24:49.721Z,87.90
2023-02-02T22:28:00.706Z,89.14
2023-02-02T22:31:08.661Z,89.17
2023-02-02T22:34:14.958Z,89.25
2023-02-02T22:37:20.926Z,89.16
2023-02-02T22:40:29.645Z,89.46
2023-02-02T22:43:36.162Z,89.72
2023-02-02T22:46:42.555Z,89.89
2023-02-02T22:49:49.397Z,90.45
2023-02-02T22:52:57.199Z,90.71
2023-02-02T22:56:04.861Z,90.26
2023-02-02T22:59:11.911Z,90.52
2023-02-02T23:02:16.848Z,91.15
2023-02-02T23:05:25.084Z,90.75
2023-02-02T23:08:32.133Z,89.95
2023-02-02T23:11:38.787Z,88.88
2023-02-02T23:14:44.233Z,89.00
2023-02-02T23:17:50.547Z,89.45
2023-02-02T23:20:57.286Z,89.31
2023-02-02T23:24:03.336Z,89.16
2023-02-02T23:27:09.375Z,89.37
2023-02-02T23:30:15.187Z,89.44
2023-02-02T23:33:21.498Z,89.25
2023-02-02T23:36:26.627Z,90.22
2023-02-02T23:39:32.248Z,90.84
2023-02-02T23:42:38.613Z,89.60
2023-02-02T23:45:45.723Z,89.43
2023-02-02T23:48:51.601Z,89.26
2023-02-02T23:51:58.053Z,90.31
2023-02-02T23:55:04.697Z,88.69
2023-02-02T23:58:10.583Z,89.98
